createdAt,value
2023-05-14T00:00:20.122Z,315
2023-05-14T00:05:17.102Z,292
2023-05-14T00:10:20.105Z,292
2023-05-14T00:15:16.969Z,292
2023-05-14T00:20:20.092Z,315
2023-05-14T00:25:17.106Z,292
2023-05-14T00:30:17.128Z,292
2023-05-14T00:35:17.144Z,315
2023-05-14T00:40:17.107Z,292
2023-05-14T00:45:17.148Z,315
2023-05-14T00:50:16.984Z,315
2023-05-14T00:55:20.196Z,338
2023-05-14T01:00:20.103Z,338
2023-05-14T01:05:20.085Z,315
2023-05-14T01:10:20.098Z,338
2023-05-14T01:15:17.122Z,315
2023-05-14T01:20:17.130Z,338
2023-05-14T01:25:17.137Z,315
2023-05-14T01:30:20.139Z,315
2023-05-14T01:35:17.143Z,338
2023-05-14T01:40:20.215Z,315
2023-05-14T01:45:20.144Z,315
2023-05-14T01:50:20.157Z,338
2023-05-14T01:55:17.152Z,315
2023-05-14T02:00:20.130Z,315
2023-05-14T02:05:17.182Z,315
2023-05-14T02:10:20.175Z,338
2023-05-14T02:15:20.122Z,338
2023-05-14T02:20:20.129Z,315
2023-05-14T02:25:20.128Z,338
2023-05-14T02:30:20.150Z,338
2023-05-14T02:35:20.179Z,338
2023-05-14T02:40:20.170Z,338
2023-05-14T02:45:20.139Z,338
2023-05-14T02:50:17.208Z,338
2023-05-14T02:55:20.152Z,338
2023-05-14T03:00:20.212Z,315
2023-05-14T03:05:20.140Z,338
2023-05-14T03:10:20.154Z,315
2023-05-14T03:15:20.195Z,315
2023-05-14T03:20:20.152Z,338
2023-05-14T03:25:17.243Z,315
2023-05-14T03:30:20.176Z,315
2023-05-14T03:35:20.155Z,338
2023-05-14T03:40:20.123Z,315
2023-05-14T03:45:20.187Z,338
2023-05-14T03:50:20.161Z,338
2023-05-14T03:55:20.201Z,338
2023-05-14T04:00:19.384Z,315
2023-05-14T04:05:19.474Z,22
2023-05-14T04:10:19.411Z,338
2023-05-14T04:15:16.468Z,338
2023-05-14T04:20:19.522Z,338
2023-05-14T04:25:16.439Z,315
2023-05-14T04:30:16.546Z,315
2023-05-14T04:35:19.434Z,338
2023-05-14T04:40:19.473Z,22
2023-05-14T04:45:19.510Z,338
2023-05-14T04:50:19.456Z,338
2023-05-14T04:55:19.432Z,338
2023-05-14T05:00:19.435Z,22
2023-05-14T05:05:19.488Z,22
2023-05-14T05:10:19.449Z,338
2023-05-14T05:15:19.469Z,338
2023-05-14T05:20:19.437Z,22
2023-05-14T05:25:19.523Z,45
2023-05-14T05:30:16.544Z,45
2023-05-14T05:35:16.497Z,68
2023-05-14T05:40:16.530Z,90
2023-05-14T05:45:19.481Z,22
2023-05-14T05:50:20.068Z,45
2023-05-14T05:55:19.442Z,45
2023-05-14T06:00:19.473Z,45
2023-05-14T06:05:19.558Z,22
2023-05-14T06:10:19.480Z,22
2023-05-14T06:15:19.519Z,22
2023-05-14T06:20:19.459Z,45
2023-05-14T06:25:19.449Z,68
2023-05-14T06:30:19.481Z,45
2023-05-14T06:35:19.455Z,45
2023-05-14T06:40:19.466Z,45
2023-05-14T06:45:19.475Z,90
2023-05-14T06:50:19.520Z,45
2023-05-14T06:55:16.363Z,90
2023-05-14T07:00:19.506Z,45
2023-05-14T07:05:19.559Z,45
2023-05-14T07:10:19.536Z,68
2023-05-14T07:15:16.565Z,45
2023-05-14T07:20:16.543Z,45
2023-05-14T07:25:16.555Z,45
2023-05-14T07:30:16.499Z,45
2023-05-14T07:35:16.376Z,68
2023-05-14T07:40:16.598Z,45
2023-05-14T07:45:19.537Z,45
2023-05-14T07:50:19.541Z,45
2023-05-14T07:55:19.511Z,45
2023-05-14T08:00:19.504Z,112
2023-05-14T08:05:19.551Z,45
2023-05-14T08:10:19.506Z,45
2023-05-14T08:15:16.527Z,68
2023-05-14T08:20:41.835Z,22
2023-05-14T08:25:19.535Z,90
2023-05-14T08:30:19.505Z,45
2023-05-14T08:35:19.599Z,22
2023-05-14T08:40:19.541Z,45
2023-05-14T08:45:19.540Z,22
2023-05-14T08:50:22.417Z,45
2023-05-14T08:55:16.449Z,45
2023-05-14T09:00:19.600Z,45
2023-05-14T09:05:19.574Z,45
2023-05-14T09:10:19.538Z,22
2023-05-14T09:15:19.551Z,22
2023-05-14T09:20:19.674Z,45
2023-05-14T09:25:19.575Z,45
2023-05-14T09:30:19.563Z,22
2023-05-14T09:35:19.575Z,45
2023-05-14T09:40:16.602Z,45
2023-05-14T09:45:16.624Z,315
2023-05-14T09:50:16.644Z,315
2023-05-14T09:55:19.590Z,315
2023-05-14T10:00:16.686Z,338
2023-05-14T10:05:19.612Z,315
2023-05-14T10:10:19.688Z,315
2023-05-14T10:15:16.568Z,292
2023-05-14T10:20:19.746Z,315
2023-05-14T10:25:19.602Z,315
2023-05-14T10:30:19.684Z,315
2023-05-14T10:35:19.598Z,338
2023-05-14T10:40:19.717Z,338
2023-05-14T10:45:16.653Z,338
2023-05-14T10:50:19.690Z,315
2023-05-14T10:55:16.649Z,315
2023-05-14T11:00:19.707Z,315
2023-05-14T11:05:19.911Z,338
2023-05-14T11:10:19.613Z,338
2023-05-14T11:15:16.656Z,292
2023-05-14T11:20:19.629Z,292
2023-05-14T11:25:16.859Z,292
2023-05-14T11:30:19.670Z,292
2023-05-14T11:35:16.661Z,338
2023-05-14T11:40:19.625Z,292
2023-05-14T11:45:16.687Z,292
2023-05-14T11:50:19.642Z,292
2023-05-14T11:55:19.643Z,315
2023-05-14T12:00:19.640Z,292
2023-05-14T12:05:19.655Z,292
2023-05-14T12:10:19.641Z,292
2023-05-14T12:15:19.669Z,292
2023-05-14T12:20:19.622Z,248
2023-05-14T12:25:16.713Z,292
2023-05-14T12:30:21.392Z,292
2023-05-14T12:35:19.640Z,292
2023-05-14T12:40:19.617Z,292
2023-05-14T12:45:20.062Z,248
2023-05-14T12:50:19.651Z,248
2023-05-14T12:55:19.647Z,292
2023-05-14T13:00:19.644Z,292
2023-05-14T13:05:19.676Z,292
2023-05-14T13:10:16.685Z,315
2023-05-14T13:15:16.743Z,338
2023-05-14T13:20:19.783Z,292
2023-05-14T13:25:16.664Z,292
2023-05-14T13:30:19.717Z,315
2023-05-14T13:35:19.642Z,292
2023-05-14T13:40:19.749Z,292
2023-05-14T13:45:19.695Z,292
2023-05-14T13:50:19.704Z,292
2023-05-14T13:55:16.744Z,225
2023-05-14T14:00:19.859Z,225
2023-05-14T14:05:19.750Z,225
2023-05-14T14:10:19.689Z,292
2023-05-14T14:15:19.738Z,292
2023-05-14T14:20:19.693Z,315
2023-05-14T14:25:16.732Z,225
2023-05-14T14:30:19.818Z,225
2023-05-14T14:35:19.756Z,292
2023-05-14T14:40:19.685Z,292
2023-05-14T14:45:19.690Z,292
2023-05-14T14:50:16.752Z,292
2023-05-14T14:55:19.702Z,225
2023-05-14T15:00:19.784Z,292
2023-05-14T15:05:16.776Z,292
2023-05-14T15:10:19.758Z,225
2023-05-14T15:15:19.677Z,292
2023-05-14T15:20:19.759Z,292
2023-05-14T15:25:19.885Z,292
2023-05-14T15:30:19.762Z,292
2023-05-14T15:35:19.701Z,315
2023-05-14T15:40:19.743Z,225
2023-05-14T15:45:19.721Z,292
2023-05-14T15:50:19.714Z,292
2023-05-14T15:55:19.756Z,292
2023-05-14T16:00:19.759Z,225
2023-05-14T16:05:19.744Z,248
2023-05-14T16:10:19.735Z,315
2023-05-14T16:15:19.745Z,292
2023-05-14T16:20:19.754Z,292
2023-05-14T16:25:16.808Z,292
2023-05-14T16:30:16.831Z,292
2023-05-14T16:35:16.832Z,292
2023-05-14T16:40:16.848Z,292
2023-05-14T16:45:19.812Z,292
2023-05-14T16:50:19.742Z,292
2023-05-14T16:55:19.747Z,315
2023-05-14T17:00:19.751Z,270
2023-05-14T17:05:19.731Z,292
2023-05-14T17:10:19.751Z,292
2023-05-14T17:15:19.762Z,292
2023-05-14T17:20:19.712Z,292
2023-05-14T17:25:19.848Z,315
2023-05-14T17:30:16.792Z,248
2023-05-14T17:35:16.801Z,270
2023-05-14T17:40:19.837Z,225
2023-05-14T17:45:16.784Z,292
2023-05-14T17:50:19.790Z,292
2023-05-14T17:55:16.854Z,225
2023-05-14T18:00:19.787Z,292
2023-05-14T18:05:20.780Z,338
2023-05-14T18:10:19.773Z,292
2023-05-14T18:15:16.820Z,292
2023-05-14T18:20:20.012Z,315
2023-05-14T18:25:16.862Z,270
2023-05-14T18:30:19.847Z,292
2023-05-14T18:35:19.838Z,292
2023-05-14T18:40:18.608Z,225
2023-05-14T18:45:16.881Z,225
2023-05-14T18:50:19.824Z,315
2023-05-14T18:55:16.843Z,292
2023-05-14T19:00:19.828Z,225
2023-05-14T19:05:19.808Z,225
2023-05-14T19:10:16.855Z,292
2023-05-14T19:15:19.871Z,225
2023-05-14T19:20:19.834Z,315
2023-05-14T19:25:19.810Z,315
2023-05-14T19:30:19.865Z,292
2023-05-14T19:35:16.950Z,292
2023-05-14T19:40:19.849Z,292
2023-05-14T19:45:19.889Z,292
2023-05-14T19:50:19.807Z,292
2023-05-14T19:55:19.828Z,225
2023-05-14T20:00:19.824Z,292
2023-05-14T20:05:19.852Z,292
2023-05-14T20:10:16.970Z,315
2023-05-14T20:15:19.858Z,292
2023-05-14T20:20:19.845Z,315
2023-05-14T20:25:16.931Z,315
2023-05-14T20:30:20.094Z,315
2023-05-14T20:35:19.863Z,292
2023-05-14T20:40:19.970Z,292
2023-05-14T20:45:16.856Z,292
2023-05-14T20:50:19.895Z,338
2023-05-14T20:55:19.816Z,292
2023-05-14T21:00:19.963Z,292
2023-05-14T21:05:16.882Z,292
2023-05-14T21:10:16.965Z,292
2023-05-14T21:15:19.929Z,292
2023-05-14T21:20:16.828Z,270
2023-05-14T21:25:19.942Z,292
2023-05-14T21:30:19.896Z,292
2023-05-14T21:35:16.909Z,292
2023-05-14T21:40:19.953Z,292
2023-05-14T21:45:21.115Z,292
2023-05-14T21:50:19.866Z,292
2023-05-14T21:55:19.844Z,225
2023-05-14T22:00:19.968Z,292
2023-05-14T22:05:19.889Z,292
2023-05-14T22:10:19.858Z,315
2023-05-14T22:15:18.146Z,292
2023-05-14T22:20:19.915Z,315
2023-05-14T22:25:19.881Z,315
2023-05-14T22:30:16.962Z,292
2023-05-14T22:35:16.804Z,292
2023-05-14T22:40:16.998Z,270
2023-05-14T22:45:19.882Z,292
2023-05-14T22:50:19.939Z,292
2023-05-14T22:55:17.005Z,292
2023-05-14T23:00:20.063Z,292
2023-05-14T23:05:16.937Z,292
2023-05-14T23:10:19.980Z,292
2023-05-14T23:15:19.932Z,292
2023-05-14T23:20:16.989Z,292
2023-05-14T23:25:19.957Z,292
2023-05-14T23:30:20.003Z,292
2023-05-14T23:35:16.972Z,292
2023-05-14T23:40:19.912Z,292
2023-05-14T23:45:19.929Z,292
2023-05-14T23:50:19.948Z,292
2023-05-14T23:55:16.776Z,270
